Xekmatt — OR2473 — position and weather

sailwx.info

Track history (hours):
 
Tides and Currents Weather Stations Pressure Air Temp Water Temp Dewpoint Dewpoint Depression Visibility Wind Speed Wind Dir Waves Ship Positions

Xekmatt

Last reported at 2016-Sep-11 17:16 UTC. Time now 2016-Sep-25 22:38 UTC.
Position N 38°42' W 009°10'.
Warning: this ship's position is 14 days out of date.

Length 14 m.

Type: Sailing vessel. MMSI: 205247310.

Date/timePositionNaut miles runAvg speedWind from/ knotsBaromVisibWave heightAir tempDewpointWater temp
2016-Sep-11 17:16N 38°42' W 009°10'4 4.8
2016-Sep-11 16:30N 38°42' W 009°15'6 1.5
2016-Sep-11 12:32N 38°40' W 009°22'0 0.4
2016-Sep-11 11:30N 38°40' W 009°21'1 1.1
2016-Sep-11 10:30N 38°39' W 009°22'3 0.1
2016-Sep-10 13:04N 38°41' W 009°19'2 3.9
2016-Sep-10 12:33N 38°39' W 009°21'0 0.2
2016-Sep-10 11:33N 38°39' W 009°21'1 0.5
2016-Sep-10 10:31N 38°40' W 009°21'1 1.1
2016-Sep-10 09:27N 38°40' W 009°20'1 0.1
2016-Sep-09 17:31N 38°41' W 009°19'5 4.9
2016-Sep-09 16:33N 38°38' W 009°24'3 2.6
2016-Sep-09 15:33N 38°41' W 009°24'4 3.7
2016-Sep-09 14:33N 38°41' W 009°19'0 0.1
2016-Sep-09 13:29N 38°41' W 009°19'  
2016-Sep-05 22:33N 38°41' W 009°21'6 5.6
2016-Sep-05 21:33N 38°42' W 009°28'8 7.9
2016-Sep-05 20:33N 38°49' W 009°31'8 8.2
2016-Sep-05 19:33N 38°57' W 009°29'9 8.5
2016-Sep-05 18:33N 39°06' W 009°27'8 8.1
2016-Sep-05 17:33N 39°14' W 009°25'8 7.8
2016-Sep-05 16:33N 39°22' W 009°25'7 7.3
2016-Sep-05 15:32N 39°29' W 009°22'9 7.5
2016-Sep-05 14:18N 39°37' W 009°18'7 7.4
2016-Sep-05 13:18N 39°44' W 009°14'6 7.0
2016-Sep-05 12:29N 39°50' W 009°12'7 7.2
2016-Sep-05 11:31N 39°56' W 009°15'8 7.4
2016-Sep-05 10:24N 40°04' W 009°18'6 7.5
2016-Sep-05 09:32N 40°10' W 009°21'  
Track history (hours):
 
Tides and Currents Weather Stations Pressure Air Temp Water Temp Dewpoint Dewpoint Depression Visibility Wind Speed Wind Dir Waves Ship Positions

Xekmatt

Last reported at 2016-Sep-11 17:16 UTC. Time now 2016-Sep-25 22:38 UTC.
Position N 38°42' W 009°10'.
Warning: this ship's position is 14 days out of date.

Length 14 m.

Type: Sailing vessel. MMSI: 205247310.

Date/timePositionNaut miles runAvg speedWind from/ knotsBaromVisibWave heightAir tempDewpointWater temp
2016-Sep-11 17:16N 38°42' W 009°10'4 4.8
2016-Sep-11 16:30N 38°42' W 009°15'6 1.5
2016-Sep-11 12:32N 38°40' W 009°22'0 0.4
2016-Sep-11 11:30N 38°40' W 009°21'1 1.1
2016-Sep-11 10:30N 38°39' W 009°22'3 0.1
2016-Sep-10 13:04N 38°41' W 009°19'2 3.9
2016-Sep-10 12:33N 38°39' W 009°21'0 0.2
2016-Sep-10 11:33N 38°39' W 009°21'1 0.5
2016-Sep-10 10:31N 38°40' W 009°21'1 1.1
2016-Sep-10 09:27N 38°40' W 009°20'1 0.1
2016-Sep-09 17:31N 38°41' W 009°19'5 4.9
2016-Sep-09 16:33N 38°38' W 009°24'3 2.6
2016-Sep-09 15:33N 38°41' W 009°24'4 3.7
2016-Sep-09 14:33N 38°41' W 009°19'0 0.1
2016-Sep-09 13:29N 38°41' W 009°19'  
2016-Sep-05 22:33N 38°41' W 009°21'6 5.6
2016-Sep-05 21:33N 38°42' W 009°28'8 7.9
2016-Sep-05 20:33N 38°49' W 009°31'8 8.2
2016-Sep-05 19:33N 38°57' W 009°29'9 8.5
2016-Sep-05 18:33N 39°06' W 009°27'8 8.1
2016-Sep-05 17:33N 39°14' W 009°25'8 7.8
2016-Sep-05 16:33N 39°22' W 009°25'7 7.3
2016-Sep-05 15:32N 39°29' W 009°22'9 7.5
2016-Sep-05 14:18N 39°37' W 009°18'7 7.4
2016-Sep-05 13:18N 39°44' W 009°14'6 7.0
2016-Sep-05 12:29N 39°50' W 009°12'7 7.2
2016-Sep-05 11:31N 39°56' W 009°15'8 7.4
2016-Sep-05 10:24N 40°04' W 009°18'6 7.5
2016-Sep-05 09:32N 40°10' W 009°21'  

Dump ship's entire track history